sensor_id;sensor_type;location;lat;lon;timestamp;P1;durP1;ratioP1;P2;durP2;ratioP2
60314;SDS011;46159;42.550;21.904;2023-05-10T00:01:15;8.77;;;5.72;;
60314;SDS011;46159;42.550;21.904;2023-05-10T00:03:41;8.93;;;6.10;;
60314;SDS011;46159;42.550;21.904;2023-05-10T00:06:07;11.05;;;6.97;;
60314;SDS011;46159;42.550;21.904;2023-05-10T00:08:33;12.50;;;7.78;;
60314;SDS011;46159;42.550;21.904;2023-05-10T00:10:59;11.48;;;7.72;;
60314;SDS011;46159;42.550;21.904;2023-05-10T00:13:25;12.98;;;8.15;;
60314;SDS011;46159;42.550;21.904;2023-05-10T00:15:51;12.55;;;9.77;;
60314;SDS011;46159;42.550;21.904;2023-05-10T00:18:18;12.80;;;8.93;;
60314;SDS011;46159;42.550;21.904;2023-05-10T00:20:44;13.68;;;9.68;;
60314;SDS011;46159;42.550;21.904;2023-05-10T00:23:11;13.05;;;9.25;;
60314;SDS011;46159;42.550;21.904;2023-05-10T00:25:38;13.10;;;9.40;;
60314;SDS011;46159;42.550;21.904;2023-05-10T00:28:04;12.77;;;9.35;;
60314;SDS011;46159;42.550;21.904;2023-05-10T00:30:30;11.75;;;8.13;;
60314;SDS011;46159;42.550;21.904;2023-05-10T00:32:56;14.80;;;9.52;;
60314;SDS011;46159;42.550;21.904;2023-05-10T00:35:22;12.90;;;9.10;;
60314;SDS011;46159;42.550;21.904;2023-05-10T00:37:48;12.60;;;9.55;;
60314;SDS011;46159;42.550;21.904;2023-05-10T00:40:15;13.43;;;9.60;;
60314;SDS011;46159;42.550;21.904;2023-05-10T00:42:41;13.02;;;9.45;;
60314;SDS011;46159;42.550;21.904;2023-05-10T00:45:07;16.38;;;12.60;;
60314;SDS011;46159;42.550;21.904;2023-05-10T00:47:33;14.90;;;9.70;;
60314;SDS011;46159;42.550;21.904;2023-05-10T00:50:00;12.00;;;8.55;;
60314;SDS011;46159;42.550;21.904;2023-05-10T00:52:26;12.60;;;9.05;;
60314;SDS011;46159;42.550;21.904;2023-05-10T00:54:53;12.50;;;8.45;;
60314;SDS011;46159;42.550;21.904;2023-05-10T00:57:19;11.45;;;8.40;;
60314;SDS011;46159;42.550;21.904;2023-05-10T00:59:45;11.57;;;8.95;;
60314;SDS011;46159;42.550;21.904;2023-05-10T01:02:11;11.20;;;8.23;;
60314;SDS011;46159;42.550;21.904;2023-05-10T01:04:38;15.18;;;11.55;;
60314;SDS011;46159;42.550;21.904;2023-05-10T01:07:04;12.02;;;10.13;;
60314;SDS011;46159;42.550;21.904;2023-05-10T01:09:30;11.10;;;7.47;;
60314;SDS011;46159;42.550;21.904;2023-05-10T01:11:56;10.55;;;7.50;;
60314;SDS011;46159;42.550;21.904;2023-05-10T01:14:22;9.60;;;7.03;;
60314;SDS011;46159;42.550;21.904;2023-05-10T01:16:49;11.63;;;6.20;;
60314;SDS011;46159;42.550;21.904;2023-05-10T01:19:19;8.35;;;5.85;;
60314;SDS011;46159;42.550;21.904;2023-05-10T01:34:59;9.02;;;5.57;;
60314;SDS011;46159;42.550;21.904;2023-05-10T01:37:29;9.55;;;5.75;;
60314;SDS011;46159;42.550;21.904;2023-05-10T01:40:10;9.50;;;5.70;;
60314;SDS011;46159;42.550;21.904;2023-05-10T01:42:42;9.68;;;6.95;;
60314;SDS011;46159;42.550;21.904;2023-05-10T01:45:13;9.95;;;5.95;;
60314;SDS011;46159;42.550;21.904;2023-05-10T01:47:42;11.68;;;6.50;;
60314;SDS011;46159;42.550;21.904;2023-05-10T01:50:18;9.48;;;7.47;;
60314;SDS011;46159;42.550;21.904;2023-05-10T01:52:46;8.82;;;5.85;;
60314;SDS011;46159;42.550;21.904;2023-05-10T01:55:14;9.45;;;7.05;;
60314;SDS011;46159;42.550;21.904;2023-05-10T01:57:42;12.02;;;9.82;;
60314;SDS011;46159;42.550;21.904;2023-05-10T02:00:09;23.42;;;16.70;;
60314;SDS011;46159;42.550;21.904;2023-05-10T02:02:39;8.88;;;5.97;;
60314;SDS011;46159;42.550;21.904;2023-05-10T02:05:07;10.73;;;5.20;;
60314;SDS011;46159;42.550;21.904;2023-05-10T02:07:34;9.80;;;7.72;;
60314;SDS011;46159;42.550;21.904;2023-05-10T02:10:01;9.25;;;6.65;;
60314;SDS011;46159;42.550;21.904;2023-05-10T02:12:28;10.35;;;6.45;;
60314;SDS011;46159;42.550;21.904;2023-05-10T02:14:55;8.95;;;5.88;;
60314;SDS011;46159;42.550;21.904;2023-05-10T02:17:22;8.30;;;5.95;;
60314;SDS011;46159;42.550;21.904;2023-05-10T02:19:48;11.60;;;6.80;;
60314;SDS011;46159;42.550;21.904;2023-05-10T02:22:15;9.73;;;5.70;;
60314;SDS011;46159;42.550;21.904;2023-05-10T02:24:42;9.70;;;6.20;;
60314;SDS011;46159;42.550;21.904;2023-05-10T02:27:09;9.93;;;6.70;;
60314;SDS011;46159;42.550;21.904;2023-05-10T02:29:35;9.35;;;6.95;;
60314;SDS011;46159;42.550;21.904;2023-05-10T02:32:02;9.70;;;6.78;;
60314;SDS011;46159;42.550;21.904;2023-05-10T02:34:28;11.45;;;7.35;;
60314;SDS011;46159;42.550;21.904;2023-05-10T02:36:55;10.77;;;6.35;;
60314;SDS011;46159;42.550;21.904;2023-05-10T02:39:22;10.50;;;6.93;;
60314;SDS011;46159;42.550;21.904;2023-05-10T02:41:49;9.98;;;7.00;;
60314;SDS011;46159;42.550;21.904;2023-05-10T02:44:17;12.45;;;8.50;;
60314;SDS011;46159;42.550;21.904;2023-05-10T02:46:44;12.00;;;7.32;;
60314;SDS011;46159;42.550;21.904;2023-05-10T02:49:10;13.80;;;7.20;;
60314;SDS011;46159;42.550;21.904;2023-05-10T02:51:37;13.80;;;8.02;;
60314;SDS011;46159;42.550;21.904;2023-05-10T02:54:07;10.50;;;7.53;;
60314;SDS011;46159;42.550;21.904;2023-05-10T02:56:36;10.98;;;7.10;;
60314;SDS011;46159;42.550;21.904;2023-05-10T02:59:06;9.35;;;6.38;;
60314;SDS011;46159;42.550;21.904;2023-05-10T03:01:32;8.48;;;5.60;;
60314;SDS011;46159;42.550;21.904;2023-05-10T03:03:58;10.35;;;6.40;;
60314;SDS011;46159;42.550;21.904;2023-05-10T03:06:25;10.85;;;6.20;;
60314;SDS011;46159;42.550;21.904;2023-05-10T03:08:51;9.52;;;6.32;;
60314;SDS011;46159;42.550;21.904;2023-05-10T03:13:56;9.18;;;5.60;;
60314;SDS011;46159;42.550;21.904;2023-05-10T03:16:29;9.40;;;5.18;;
60314;SDS011;46159;42.550;21.904;2023-05-10T03:19:11;7.00;;;4.22;;
60314;SDS011;46159;42.550;21.904;2023-05-10T03:21:38;9.60;;;4.57;;
60314;SDS011;46159;42.550;21.904;2023-05-10T03:24:07;15.20;;;11.02;;
60314;SDS011;46159;42.550;21.904;2023-05-10T03:26:36;8.13;;;4.75;;
60314;SDS011;46159;42.550;21.904;2023-05-10T03:29:04;8.30;;;4.80;;
60314;SDS011;46159;42.550;21.904;2023-05-10T03:31:30;8.48;;;5.32;;
60314;SDS011;46159;42.550;21.904;2023-05-10T03:33:56;8.25;;;5.10;;
60314;SDS011;46159;42.550;21.904;2023-05-10T03:36:23;8.85;;;4.82;;
60314;SDS011;46159;42.550;21.904;2023-05-10T03:38:49;8.32;;;4.90;;
60314;SDS011;46159;42.550;21.904;2023-05-10T03:41:15;8.90;;;4.93;;
60314;SDS011;46159;42.550;21.904;2023-05-10T03:43:41;9.35;;;5.13;;
60314;SDS011;46159;42.550;21.904;2023-05-10T03:46:07;8.95;;;5.07;;
60314;SDS011;46159;42.550;21.904;2023-05-10T03:48:34;9.93;;;5.20;;
60314;SDS011;46159;42.550;21.904;2023-05-10T03:51:00;11.93;;;5.85;;
60314;SDS011;46159;42.550;21.904;2023-05-10T03:53:26;12.25;;;5.35;;
60314;SDS011;46159;42.550;21.904;2023-05-10T03:55:52;9.48;;;5.13;;
60314;SDS011;46159;42.550;21.904;2023-05-10T03:58:18;10.20;;;4.75;;
60314;SDS011;46159;42.550;21.904;2023-05-10T04:00:44;10.70;;;5.63;;
60314;SDS011;46159;42.550;21.904;2023-05-10T04:03:11;11.52;;;5.88;;
60314;SDS011;46159;42.550;21.904;2023-05-10T04:05:37;9.13;;;5.00;;
60314;SDS011;46159;42.550;21.904;2023-05-10T04:08:04;10.63;;;5.53;;
60314;SDS011;46159;42.550;21.904;2023-05-10T04:10:30;6.93;;;4.22;;
60314;SDS011;46159;42.550;21.904;2023-05-10T04:12:56;9.18;;;4.68;;
60314;SDS011;46159;42.550;21.904;2023-05-10T04:15:22;12.98;;;7.20;;
60314;SDS011;46159;42.550;21.904;2023-05-10T04:17:48;10.32;;;5.75;;
60314;SDS011;46159;42.550;21.904;2023-05-10T04:20:15;10.95;;;5.57;;
60314;SDS011;46159;42.550;21.904;2023-05-10T04:22:41;10.55;;;6.10;;
60314;SDS011;46159;42.550;21.904;2023-05-10T04:25:07;10.80;;;5.68;;
60314;SDS011;46159;42.550;21.904;2023-05-10T04:27:34;8.00;;;5.07;;
60314;SDS011;46159;42.550;21.904;2023-05-10T04:30:00;22.02;;;8.90;;
60314;SDS011;46159;42.550;21.904;2023-05-10T04:32:26;10.85;;;6.00;;
60314;SDS011;46159;42.550;21.904;2023-05-10T04:34:53;10.15;;;5.05;;
60314;SDS011;46159;42.550;21.904;2023-05-10T04:37:19;9.57;;;5.47;;
60314;SDS011;46159;42.550;21.904;2023-05-10T04:39:46;8.98;;;5.38;;
60314;SDS011;46159;42.550;21.904;2023-05-10T04:42:12;11.52;;;6.10;;
60314;SDS011;46159;42.550;21.904;2023-05-10T04:44:40;9.07;;;5.00;;
60314;SDS011;46159;42.550;21.904;2023-05-10T04:47:06;11.00;;;5.18;;
60314;SDS011;46159;42.550;21.904;2023-05-10T04:49:32;8.02;;;4.82;;
60314;SDS011;46159;42.550;21.904;2023-05-10T04:51:58;7.40;;;4.28;;
60314;SDS011;46159;42.550;21.904;2023-05-10T04:54:24;10.13;;;5.80;;
60314;SDS011;46159;42.550;21.904;2023-05-10T04:56:50;8.27;;;4.80;;
60314;SDS011;46159;42.550;21.904;2023-05-10T04:59:16;9.52;;;5.05;;
60314;SDS011;46159;42.550;21.904;2023-05-10T05:01:42;11.20;;;6.68;;
60314;SDS011;46159;42.550;21.904;2023-05-10T05:04:08;9.07;;;5.40;;
60314;SDS011;46159;42.550;21.904;2023-05-10T05:06:35;8.55;;;5.00;;
60314;SDS011;46159;42.550;21.904;2023-05-10T05:09:01;8.82;;;5.40;;
60314;SDS011;46159;42.550;21.904;2023-05-10T05:11:27;15.35;;;9.77;;
60314;SDS011;46159;42.550;21.904;2023-05-10T05:13:53;10.60;;;6.72;;
60314;SDS011;46159;42.550;21.904;2023-05-10T05:16:19;12.27;;;6.60;;
60314;SDS011;46159;42.550;21.904;2023-05-10T05:18:46;11.77;;;5.90;;
60314;SDS011;46159;42.550;21.904;2023-05-10T05:21:16;10.40;;;5.90;;
60314;SDS011;46159;42.550;21.904;2023-05-10T05:23:42;9.77;;;6.28;;
60314;SDS011;46159;42.550;21.904;2023-05-10T05:26:08;8.93;;;4.18;;
60314;SDS011;46159;42.550;21.904;2023-05-10T05:28:35;10.38;;;5.63;;
60314;SDS011;46159;42.550;21.904;2023-05-10T05:31:04;8.38;;;4.93;;
60314;SDS011;46159;42.550;21.904;2023-05-10T05:33:30;10.25;;;5.00;;
60314;SDS011;46159;42.550;21.904;2023-05-10T05:35:56;8.05;;;4.97;;
60314;SDS011;46159;42.550;21.904;2023-05-10T05:38:23;11.77;;;6.28;;
60314;SDS011;46159;42.550;21.904;2023-05-10T05:40:49;9.80;;;5.10;;
60314;SDS011;46159;42.550;21.904;2023-05-10T05:43:15;9.30;;;5.60;;
60314;SDS011;46159;42.550;21.904;2023-05-10T05:45:41;11.35;;;6.22;;
60314;SDS011;46159;42.550;21.904;2023-05-10T05:48:07;11.15;;;7.25;;
60314;SDS011;46159;42.550;21.904;2023-05-10T05:50:33;49.78;;;38.28;;
60314;SDS011;46159;42.550;21.904;2023-05-10T05:52:59;17.33;;;12.98;;
60314;SDS011;46159;42.550;21.904;2023-05-10T05:55:25;11.52;;;7.45;;
60314;SDS011;46159;42.550;21.904;2023-05-10T05:57:52;9.60;;;6.72;;
60314;SDS011;46159;42.550;21.904;2023-05-10T06:00:18;77.10;;;60.05;;
60314;SDS011;46159;42.550;21.904;2023-05-10T06:02:44;30.77;;;23.95;;
60314;SDS011;46159;42.550;21.904;2023-05-10T06:05:11;13.73;;;8.50;;
60314;SDS011;46159;42.550;21.904;2023-05-10T06:07:38;11.73;;;7.22;;
60314;SDS011;46159;42.550;21.904;2023-05-10T06:10:07;10.98;;;6.75;;
60314;SDS011;46159;42.550;21.904;2023-05-10T06:12:33;12.90;;;7.22;;
60314;SDS011;46159;42.550;21.904;2023-05-10T06:15:00;8.57;;;5.00;;
60314;SDS011;46159;42.550;21.904;2023-05-10T06:17:26;37.28;;;29.08;;
60314;SDS011;46159;42.550;21.904;2023-05-10T06:19:52;24.52;;;18.20;;
60314;SDS011;46159;42.550;21.904;2023-05-10T06:22:18;14.23;;;9.65;;
60314;SDS011;46159;42.550;21.904;2023-05-10T06:24:44;9.48;;;5.53;;
60314;SDS011;46159;42.550;21.904;2023-05-10T06:27:10;8.82;;;5.35;;
60314;SDS011;46159;42.550;21.904;2023-05-10T06:29:36;9.90;;;5.72;;
60314;SDS011;46159;42.550;21.904;2023-05-10T06:32:02;9.77;;;6.03;;
60314;SDS011;46159;42.550;21.904;2023-05-10T06:34:28;14.07;;;10.52;;
60314;SDS011;46159;42.550;21.904;2023-05-10T06:36:55;12.73;;;9.55;;
60314;SDS011;46159;42.550;21.904;2023-05-10T06:39:21;9.82;;;7.03;;
60314;SDS011;46159;42.550;21.904;2023-05-10T06:41:47;14.15;;;10.75;;
60314;SDS011;46159;42.550;21.904;2023-05-10T06:44:13;15.02;;;9.50;;
60314;SDS011;46159;42.550;21.904;2023-05-10T06:46:39;12.15;;;8.30;;
60314;SDS011;46159;42.550;21.904;2023-05-10T06:49:06;11.00;;;7.20;;
60314;SDS011;46159;42.550;21.904;2023-05-10T06:51:32;10.93;;;7.57;;
60314;SDS011;46159;42.550;21.904;2023-05-10T06:53:58;11.38;;;7.88;;
60314;SDS011;46159;42.550;21.904;2023-05-10T06:56:25;10.32;;;7.15;;
60314;SDS011;46159;42.550;21.904;2023-05-10T06:58:51;12.30;;;8.77;;
60314;SDS011;46159;42.550;21.904;2023-05-10T07:01:17;11.60;;;8.05;;
60314;SDS011;46159;42.550;21.904;2023-05-10T07:03:43;13.43;;;9.40;;
60314;SDS011;46159;42.550;21.904;2023-05-10T07:06:09;14.10;;;8.50;;
60314;SDS011;46159;42.550;21.904;2023-05-10T07:08:35;11.90;;;8.10;;
60314;SDS011;46159;42.550;21.904;2023-05-10T07:11:05;16.13;;;12.00;;
60314;SDS011;46159;42.550;21.904;2023-05-10T07:13:36;15.95;;;10.88;;
60314;SDS011;46159;42.550;21.904;2023-05-10T07:16:04;13.10;;;9.10;;
60314;SDS011;46159;42.550;21.904;2023-05-10T07:18:31;11.73;;;8.43;;
60314;SDS011;46159;42.550;21.904;2023-05-10T07:20:57;15.48;;;8.73;;
60314;SDS011;46159;42.550;21.904;2023-05-10T07:23:23;18.10;;;12.20;;
60314;SDS011;46159;42.550;21.904;2023-05-10T07:25:50;15.85;;;11.85;;
60314;SDS011;46159;42.550;21.904;2023-05-10T07:28:17;8.40;;;4.22;;
60314;SDS011;46159;42.550;21.904;2023-05-10T07:30:43;9.32;;;5.78;;
60314;SDS011;46159;42.550;21.904;2023-05-10T07:33:10;8.45;;;4.47;;
60314;SDS011;46159;42.550;21.904;2023-05-10T07:35:36;9.85;;;5.57;;
60314;SDS011;46159;42.550;21.904;2023-05-10T07:38:03;11.80;;;6.28;;
60314;SDS011;46159;42.550;21.904;2023-05-10T07:40:29;8.00;;;4.00;;
60314;SDS011;46159;42.550;21.904;2023-05-10T07:42:55;10.07;;;6.78;;
60314;SDS011;46159;42.550;21.904;2023-05-10T07:45:22;18.45;;;13.50;;
60314;SDS011;46159;42.550;21.904;2023-05-10T07:47:48;18.52;;;11.68;;
60314;SDS011;46159;42.550;21.904;2023-05-10T07:50:14;39.58;;;30.65;;
60314;SDS011;46159;42.550;21.904;2023-05-10T07:52:40;18.55;;;9.80;;
60314;SDS011;46159;42.550;21.904;2023-05-10T07:55:07;20.25;;;13.00;;
60314;SDS011;46159;42.550;21.904;2023-05-10T07:57:33;8.60;;;5.05;;
60314;SDS011;46159;42.550;21.904;2023-05-10T07:59:59;10.63;;;5.70;;
60314;SDS011;46159;42.550;21.904;2023-05-10T08:02:25;20.42;;;12.93;;
60314;SDS011;46159;42.550;21.904;2023-05-10T08:04:52;18.13;;;7.30;;
60314;SDS011;46159;42.550;21.904;2023-05-10T08:07:18;20.60;;;9.27;;
60314;SDS011;46159;42.550;21.904;2023-05-10T08:09:44;22.50;;;10.57;;
60314;SDS011;46159;42.550;21.904;2023-05-10T08:12:10;20.25;;;8.23;;
60314;SDS011;46159;42.550;21.904;2023-05-10T08:14:36;20.83;;;7.82;;
60314;SDS011;46159;42.550;21.904;2023-05-10T08:17:02;15.48;;;7.22;;
60314;SDS011;46159;42.550;21.904;2023-05-10T08:19:28;17.75;;;10.90;;
60314;SDS011;46159;42.550;21.904;2023-05-10T08:21:54;23.17;;;15.32;;
60314;SDS011;46159;42.550;21.904;2023-05-10T08:24:21;21.33;;;12.32;;
60314;SDS011;46159;42.550;21.904;2023-05-10T08:26:47;21.40;;;13.50;;
60314;SDS011;46159;42.550;21.904;2023-05-10T08:29:14;39.92;;;17.45;;
60314;SDS011;46159;42.550;21.904;2023-05-10T08:31:40;23.83;;;16.15;;
60314;SDS011;46159;42.550;21.904;2023-05-10T08:34:06;24.38;;;15.93;;
60314;SDS011;46159;42.550;21.904;2023-05-10T08:36:33;22.88;;;15.52;;
60314;SDS011;46159;42.550;21.904;2023-05-10T08:38:59;17.17;;;11.63;;
60314;SDS011;46159;42.550;21.904;2023-05-10T08:41:26;17.70;;;10.63;;
60314;SDS011;46159;42.550;21.904;2023-05-10T08:43:53;17.55;;;12.40;;
60314;SDS011;46159;42.550;21.904;2023-05-10T08:46:19;22.77;;;12.85;;
60314;SDS011;46159;42.550;21.904;2023-05-10T08:48:46;16.45;;;6.00;;
60314;SDS011;46159;42.550;21.904;2023-05-10T08:51:14;18.02;;;7.20;;
60314;SDS011;46159;42.550;21.904;2023-05-10T08:53:41;18.88;;;10.55;;
60314;SDS011;46159;42.550;21.904;2023-05-10T08:56:08;13.05;;;6.88;;
60314;SDS011;46159;42.550;21.904;2023-05-10T08:58:34;16.23;;;6.80;;
60314;SDS011;46159;42.550;21.904;2023-05-10T09:01:00;15.70;;;4.82;;
60314;SDS011;46159;42.550;21.904;2023-05-10T09:03:26;10.77;;;4.32;;
60314;SDS011;46159;42.550;21.904;2023-05-10T09:05:52;16.23;;;5.07;;
60314;SDS011;46159;42.550;21.904;2023-05-10T09:08:20;13.73;;;4.88;;
60314;SDS011;46159;42.550;21.904;2023-05-10T09:10:47;13.05;;;6.78;;
60314;SDS011;46159;42.550;21.904;2023-05-10T09:13:14;19.67;;;5.47;;
60314;SDS011;46159;42.550;21.904;2023-05-10T09:15:43;12.48;;;6.18;;
60314;SDS011;46159;42.550;21.904;2023-05-10T09:18:10;12.70;;;5.65;;
60314;SDS011;46159;42.550;21.904;2023-05-10T09:20:36;12.05;;;5.53;;
60314;SDS011;46159;42.550;21.904;2023-05-10T09:23:02;15.90;;;4.70;;
60314;SDS011;46159;42.550;21.904;2023-05-10T09:25:29;11.82;;;6.78;;
60314;SDS011;46159;42.550;21.904;2023-05-10T09:27:55;16.30;;;9.18;;
60314;SDS011;46159;42.550;21.904;2023-05-10T09:30:25;16.50;;;10.13;;
60314;SDS011;46159;42.550;21.904;2023-05-10T09:32:52;17.30;;;10.27;;
60314;SDS011;46159;42.550;21.904;2023-05-10T09:35:19;21.00;;;8.20;;
60314;SDS011;46159;42.550;21.904;2023-05-10T09:37:47;10.07;;;5.38;;
60314;SDS011;46159;42.550;21.904;2023-05-10T09:40:15;16.20;;;5.63;;
60314;SDS011;46159;42.550;21.904;2023-05-10T09:45:20;20.60;;;11.00;;
60314;SDS011;46159;42.550;21.904;2023-05-10T09:47:46;11.98;;;5.50;;
60314;SDS011;46159;42.550;21.904;2023-05-10T09:50:12;8.35;;;4.35;;
60314;SDS011;46159;42.550;21.904;2023-05-10T09:53:12;25.17;;;15.98;;
60314;SDS011;46159;42.550;21.904;2023-05-10T09:55:45;26.08;;;16.20;;
60314;SDS011;46159;42.550;21.904;2023-05-10T09:58:11;20.88;;;9.73;;
60314;SDS011;46159;42.550;21.904;2023-05-10T10:00:38;11.68;;;6.72;;
60314;SDS011;46159;42.550;21.904;2023-05-10T10:03:05;10.50;;;5.43;;
60314;SDS011;46159;42.550;21.904;2023-05-10T10:05:35;14.32;;;6.50;;
60314;SDS011;46159;42.550;21.904;2023-05-10T10:08:03;18.17;;;11.38;;
60314;SDS011;46159;42.550;21.904;2023-05-10T10:10:29;16.85;;;7.88;;
60314;SDS011;46159;42.550;21.904;2023-05-10T10:12:56;17.15;;;10.25;;
60314;SDS011;46159;42.550;21.904;2023-05-10T10:15:23;24.17;;;12.32;;
60314;SDS011;46159;42.550;21.904;2023-05-10T10:17:50;14.98;;;6.60;;
60314;SDS011;46159;42.550;21.904;2023-05-10T10:20:16;17.75;;;9.57;;
60314;SDS011;46159;42.550;21.904;2023-05-10T10:22:43;22.95;;;11.63;;
60314;SDS011;46159;42.550;21.904;2023-05-10T10:25:10;26.90;;;12.80;;
60314;SDS011;46159;42.550;21.904;2023-05-10T10:35:39;18.17;;;8.80;;
60314;SDS011;46159;42.550;21.904;2023-05-10T10:38:07;16.65;;;9.25;;
60314;SDS011;46159;42.550;21.904;2023-05-10T10:40:34;21.15;;;9.13;;
60314;SDS011;46159;42.550;21.904;2023-05-10T10:45:48;20.58;;;7.97;;
60314;SDS011;46159;42.550;21.904;2023-05-10T10:48:21;13.70;;;6.38;;
60314;SDS011;46159;42.550;21.904;2023-05-10T10:50:51;22.88;;;8.38;;
60314;SDS011;46159;42.550;21.904;2023-05-10T10:53:21;12.23;;;6.38;;
60314;SDS011;46159;42.550;21.904;2023-05-10T10:55:47;13.50;;;7.40;;
60314;SDS011;46159;42.550;21.904;2023-05-10T10:58:29;22.08;;;7.95;;
60314;SDS011;46159;42.550;21.904;2023-05-10T11:01:15;14.88;;;6.50;;
60314;SDS011;46159;42.550;21.904;2023-05-10T11:06:33;13.32;;;6.47;;
60314;SDS011;46159;42.550;21.904;2023-05-10T11:09:06;20.80;;;9.13;;
60314;SDS011;46159;42.550;21.904;2023-05-10T11:11:33;29.23;;;7.57;;
60314;SDS011;46159;42.550;21.904;2023-05-10T11:14:06;20.35;;;11.68;;
60314;SDS011;46159;42.550;21.904;2023-05-10T11:16:42;16.75;;;9.07;;
60314;SDS011;46159;42.550;21.904;2023-05-10T11:19:15;14.35;;;9.85;;
60314;SDS011;46159;42.550;21.904;2023-05-10T11:21:45;23.85;;;10.98;;
60314;SDS011;46159;42.550;21.904;2023-05-10T11:24:13;12.55;;;7.72;;
60314;SDS011;46159;42.550;21.904;2023-05-10T11:26:39;22.08;;;13.80;;
60314;SDS011;46159;42.550;21.904;2023-05-10T11:29:05;24.83;;;11.68;;
60314;SDS011;46159;42.550;21.904;2023-05-10T11:31:32;19.92;;;12.18;;
60314;SDS011;46159;42.550;21.904;2023-05-10T11:33:58;35.83;;;15.45;;
60314;SDS011;46159;42.550;21.904;2023-05-10T11:36:32;19.35;;;10.18;;
60314;SDS011;46159;42.550;21.904;2023-05-10T11:38:58;21.88;;;9.02;;
60314;SDS011;46159;42.550;21.904;2023-05-10T11:41:25;20.40;;;7.45;;
60314;SDS011;46159;42.550;21.904;2023-05-10T11:43:52;13.23;;;5.55;;
60314;SDS011;46159;42.550;21.904;2023-05-10T11:46:24;22.38;;;9.70;;
60314;SDS011;46159;42.550;21.904;2023-05-10T11:48:50;18.85;;;7.20;;
60314;SDS011;46159;42.550;21.904;2023-05-10T11:51:20;18.27;;;8.82;;
60314;SDS011;46159;42.550;21.904;2023-05-10T11:53:47;18.35;;;10.75;;
60314;SDS011;46159;42.550;21.904;2023-05-10T11:56:13;22.83;;;5.68;;
60314;SDS011;46159;42.550;21.904;2023-05-10T11:58:39;25.92;;;5.63;;
60314;SDS011;46159;42.550;21.904;2023-05-10T12:01:06;11.95;;;4.85;;
60314;SDS011;46159;42.550;21.904;2023-05-10T12:03:32;21.73;;;8.88;;
60314;SDS011;46159;42.550;21.904;2023-05-10T12:05:59;13.82;;;5.80;;
60314;SDS011;46159;42.550;21.904;2023-05-10T12:08:26;17.35;;;7.65;;
60314;SDS011;46159;42.550;21.904;2023-05-10T12:10:53;13.88;;;8.35;;
60314;SDS011;46159;42.550;21.904;2023-05-10T12:13:20;13.38;;;5.60;;
60314;SDS011;46159;42.550;21.904;2023-05-10T12:15:46;25.55;;;8.48;;
60314;SDS011;46159;42.550;21.904;2023-05-10T12:18:13;12.00;;;5.72;;
60314;SDS011;46159;42.550;21.904;2023-05-10T12:20:40;35.80;;;27.35;;
60314;SDS011;46159;42.550;21.904;2023-05-10T12:23:07;15.10;;;6.40;;
60314;SDS011;46159;42.550;21.904;2023-05-10T12:25:35;13.82;;;8.38;;
60314;SDS011;46159;42.550;21.904;2023-05-10T12:28:05;8.73;;;4.40;;
60314;SDS011;46159;42.550;21.904;2023-05-10T12:30:32;12.35;;;5.35;;
60314;SDS011;46159;42.550;21.904;2023-05-10T12:33:02;14.77;;;6.18;;
60314;SDS011;46159;42.550;21.904;2023-05-10T12:35:32;11.52;;;5.57;;
60314;SDS011;46159;42.550;21.904;2023-05-10T12:37:58;22.02;;;10.90;;
60314;SDS011;46159;42.550;21.904;2023-05-10T12:40:24;20.40;;;7.28;;
60314;SDS011;46159;42.550;21.904;2023-05-10T12:42:51;26.02;;;7.97;;
60314;SDS011;46159;42.550;21.904;2023-05-10T12:45:17;14.57;;;7.63;;
60314;SDS011;46159;42.550;21.904;2023-05-10T12:47:43;12.23;;;7.32;;
60314;SDS011;46159;42.550;21.904;2023-05-10T12:50:10;19.67;;;8.93;;
60314;SDS011;46159;42.550;21.904;2023-05-10T12:52:36;16.98;;;8.52;;
60314;SDS011;46159;42.550;21.904;2023-05-10T12:55:02;18.08;;;11.23;;
60314;SDS011;46159;42.550;21.904;2023-05-10T12:57:28;24.15;;;15.77;;
60314;SDS011;46159;42.550;21.904;2023-05-10T12:59:54;26.70;;;10.13;;
60314;SDS011;46159;42.550;21.904;2023-05-10T13:02:20;29.02;;;18.48;;
60314;SDS011;46159;42.550;21.904;2023-05-10T13:04:48;34.92;;;20.13;;
60314;SDS011;46159;42.550;21.904;2023-05-10T13:07:14;37.00;;;20.10;;
60314;SDS011;46159;42.550;21.904;2023-05-10T13:09:40;17.25;;;9.85;;
60314;SDS011;46159;42.550;21.904;2023-05-10T13:12:06;32.88;;;16.58;;
60314;SDS011;46159;42.550;21.904;2023-05-10T13:14:32;29.15;;;18.50;;
60314;SDS011;46159;42.550;21.904;2023-05-10T13:16:58;41.88;;;19.45;;
60314;SDS011;46159;42.550;21.904;2023-05-10T13:19:25;38.20;;;18.20;;
60314;SDS011;46159;42.550;21.904;2023-05-10T13:21:51;38.45;;;18.17;;
60314;SDS011;46159;42.550;21.904;2023-05-10T13:24:17;19.48;;;11.48;;
60314;SDS011;46159;42.550;21.904;2023-05-10T13:26:44;29.98;;;16.85;;
60314;SDS011;46159;42.550;21.904;2023-05-10T13:29:10;32.15;;;17.63;;
60314;SDS011;46159;42.550;21.904;2023-05-10T13:31:36;30.95;;;21.48;;
60314;SDS011;46159;42.550;21.904;2023-05-10T13:34:03;23.55;;;11.52;;
60314;SDS011;46159;42.550;21.904;2023-05-10T13:36:29;29.50;;;18.00;;
60314;SDS011;46159;42.550;21.904;2023-05-10T13:38:55;25.73;;;13.55;;
60314;SDS011;46159;42.550;21.904;2023-05-10T13:41:21;20.80;;;13.23;;
60314;SDS011;46159;42.550;21.904;2023-05-10T13:43:47;35.97;;;15.63;;
60314;SDS011;46159;42.550;21.904;2023-05-10T13:46:14;23.80;;;14.38;;
60314;SDS011;46159;42.550;21.904;2023-05-10T13:48:40;22.42;;;10.65;;
60314;SDS011;46159;42.550;21.904;2023-05-10T13:51:06;27.85;;;14.88;;
60314;SDS011;46159;42.550;21.904;2023-05-10T13:53:32;32.58;;;14.60;;
60314;SDS011;46159;42.550;21.904;2023-05-10T13:55:58;47.75;;;33.65;;
60314;SDS011;46159;42.550;21.904;2023-05-10T13:58:24;47.85;;;27.35;;
60314;SDS011;46159;42.550;21.904;2023-05-10T14:00:50;44.58;;;24.10;;
60314;SDS011;46159;42.550;21.904;2023-05-10T14:03:16;36.05;;;19.33;;
60314;SDS011;46159;42.550;21.904;2023-05-10T14:05:43;51.25;;;30.50;;
60314;SDS011;46159;42.550;21.904;2023-05-10T14:08:10;32.80;;;19.85;;
60314;SDS011;46159;42.550;21.904;2023-05-10T14:10:38;35.20;;;20.80;;
60314;SDS011;46159;42.550;21.904;2023-05-10T14:13:04;40.33;;;24.27;;
60314;SDS011;46159;42.550;21.904;2023-05-10T14:15:31;28.45;;;17.70;;
60314;SDS011;46159;42.550;21.904;2023-05-10T14:17:57;35.80;;;18.00;;
60314;SDS011;46159;42.550;21.904;2023-05-10T14:20:23;38.42;;;17.40;;
60314;SDS011;46159;42.550;21.904;2023-05-10T14:22:49;26.98;;;13.45;;
60314;SDS011;46159;42.550;21.904;2023-05-10T14:25:15;25.35;;;12.40;;
60314;SDS011;46159;42.550;21.904;2023-05-10T14:27:41;30.85;;;18.95;;
60314;SDS011;46159;42.550;21.904;2023-05-10T14:30:08;39.90;;;19.80;;
60314;SDS011;46159;42.550;21.904;2023-05-10T14:32:34;39.25;;;18.25;;
60314;SDS011;46159;42.550;21.904;2023-05-10T14:35:01;35.03;;;20.00;;
60314;SDS011;46159;42.550;21.904;2023-05-10T14:37:27;65.93;;;26.70;;
60314;SDS011;46159;42.550;21.904;2023-05-10T14:39:53;53.25;;;25.50;;
60314;SDS011;46159;42.550;21.904;2023-05-10T14:42:20;49.92;;;24.50;;
60314;SDS011;46159;42.550;21.904;2023-05-10T14:44:46;44.92;;;20.40;;
60314;SDS011;46159;42.550;21.904;2023-05-10T14:47:12;64.82;;;30.35;;
60314;SDS011;46159;42.550;21.904;2023-05-10T14:49:38;39.80;;;21.55;;
60314;SDS011;46159;42.550;21.904;2023-05-10T14:52:04;43.40;;;21.33;;